createdAt,value
2019-05-07T19:36:54.533Z,5.10
2019-05-07T19:42:02.612Z,4.70
2019-05-07T19:47:08.677Z,2.63
2019-05-07T19:52:14.654Z,2.97
2019-05-07T19:57:24.995Z,2.40
2019-05-07T20:02:37.063Z,2.37
2019-05-07T20:07:43.117Z,2.07
2019-05-07T20:12:48.890Z,2.67
2019-05-07T20:17:54.580Z,2.47
2019-05-07T20:23:02.425Z,2.27
2019-05-07T20:28:07.821Z,2.27
2019-05-07T20:33:13.495Z,2.40
2019-05-07T20:38:19.110Z,2.27
2019-05-07T20:43:25.252Z,2.20
2019-05-07T20:48:32.541Z,2.30
2019-05-07T20:53:54.948Z,2.90
2019-05-07T20:59:02.952Z,2.30
2019-05-07T21:04:10.278Z,2.03
2019-05-07T21:09:16.229Z,2.20
2019-05-07T21:14:22.816Z,2.10
2019-05-07T21:19:28.707Z,1.70
2019-05-07T21:24:34.366Z,2.10
2019-05-07T21:29:42.102Z,2.03
2019-05-07T21:34:47.434Z,2.53
2019-05-07T21:39:53.485Z,2.03
2019-05-07T21:45:01.924Z,2.10
2019-05-07T21:50:06.832Z,2.10
2019-05-07T21:55:25.445Z,2.20
2019-05-07T22:00:59.320Z,1.90
2019-05-07T22:06:05.549Z,2.43
2019-05-07T22:11:12.465Z,2.27
2019-05-07T22:16:18.281Z,2.30
2019-05-07T22:21:24.339Z,1.87
2019-05-07T22:26:32.249Z,2.20
2019-05-07T22:31:56.512Z,2.03
2019-05-07T22:37:03.259Z,2.50
2019-05-07T22:42:19.513Z,2.27
2019-05-07T22:47:25.028Z,2.17
2019-05-07T22:52:32.656Z,1.90
2019-05-07T22:58:01.681Z,2.03
2019-05-07T23:03:07.417Z,1.80
2019-05-07T23:08:13.147Z,2.07
2019-05-07T23:13:18.953Z,2.13
2019-05-07T23:18:24.822Z,2.43
2019-05-07T23:23:32.526Z,2.20
2019-05-07T23:28:38.074Z,2.17
2019-05-07T23:33:43.703Z,1.90
2019-05-07T23:38:49.442Z,1.90
2019-05-07T23:44:15.938Z,1.60
2019-05-07T23:49:23.234Z,1.80
2019-05-07T23:54:29.139Z,1.83
2019-05-07T23:59:34.863Z,1.53
